sensor_id;sensor_type;location;lat;lon;timestamp;P1;durP1;ratioP1;P2;durP2;ratioP2
69629;SDS011;56857;52.212;5.496;2023-04-25T00:01:34;15.27;;;3.75;;
69629;SDS011;56857;52.212;5.496;2023-04-25T00:03:59;13.10;;;3.70;;
69629;SDS011;56857;52.212;5.496;2023-04-25T00:06:24;21.80;;;5.03;;
69629;SDS011;56857;52.212;5.496;2023-04-25T00:08:49;12.45;;;4.80;;
69629;SDS011;56857;52.212;5.496;2023-04-25T00:11:20;24.57;;;4.63;;
69629;SDS011;56857;52.212;5.496;2023-04-25T00:13:46;18.92;;;4.90;;
69629;SDS011;56857;52.212;5.496;2023-04-25T00:16:11;19.02;;;4.57;;
69629;SDS011;56857;52.212;5.496;2023-04-25T00:18:36;12.98;;;3.72;;
69629;SDS011;56857;52.212;5.496;2023-04-25T00:21:02;22.88;;;5.35;;
69629;SDS011;56857;52.212;5.496;2023-04-25T00:23:27;12.75;;;3.90;;
69629;SDS011;56857;52.212;5.496;2023-04-25T00:25:52;22.60;;;5.45;;
69629;SDS011;56857;52.212;5.496;2023-04-25T00:28:18;14.68;;;3.60;;
69629;SDS011;56857;52.212;5.496;2023-04-25T00:30:43;21.23;;;4.63;;
69629;SDS011;56857;52.212;5.496;2023-04-25T00:33:08;13.15;;;4.45;;
69629;SDS011;56857;52.212;5.496;2023-04-25T00:35:34;17.95;;;3.72;;
69629;SDS011;56857;52.212;5.496;2023-04-25T00:38:00;14.07;;;3.38;;
69629;SDS011;56857;52.212;5.496;2023-04-25T00:40:26;12.80;;;4.68;;
69629;SDS011;56857;52.212;5.496;2023-04-25T00:42:52;13.88;;;3.90;;
69629;SDS011;56857;52.212;5.496;2023-04-25T00:45:18;16.55;;;4.82;;
69629;SDS011;56857;52.212;5.496;2023-04-25T00:47:44;18.65;;;4.18;;
69629;SDS011;56857;52.212;5.496;2023-04-25T00:50:10;19.35;;;4.20;;
69629;SDS011;56857;52.212;5.496;2023-04-25T00:52:37;13.15;;;3.30;;
69629;SDS011;56857;52.212;5.496;2023-04-25T00:55:05;14.90;;;4.60;;
69629;SDS011;56857;52.212;5.496;2023-04-25T00:57:30;14.48;;;3.38;;
69629;SDS011;56857;52.212;5.496;2023-04-25T00:59:56;15.15;;;3.70;;
69629;SDS011;56857;52.212;5.496;2023-04-25T01:02:22;19.10;;;3.35;;
69629;SDS011;56857;52.212;5.496;2023-04-25T01:04:48;15.43;;;3.83;;
69629;SDS011;56857;52.212;5.496;2023-04-25T01:07:14;15.35;;;4.00;;
69629;SDS011;56857;52.212;5.496;2023-04-25T01:09:39;13.52;;;4.47;;
69629;SDS011;56857;52.212;5.496;2023-04-25T01:12:05;9.80;;;3.17;;
69629;SDS011;56857;52.212;5.496;2023-04-25T01:14:31;15.02;;;2.78;;
69629;SDS011;56857;52.212;5.496;2023-04-25T01:16:56;11.48;;;3.35;;
69629;SDS011;56857;52.212;5.496;2023-04-25T01:19:22;17.42;;;3.75;;
69629;SDS011;56857;52.212;5.496;2023-04-25T01:21:48;13.63;;;3.63;;
69629;SDS011;56857;52.212;5.496;2023-04-25T01:24:15;16.90;;;3.22;;
69629;SDS011;56857;52.212;5.496;2023-04-25T01:26:41;17.88;;;3.63;;
69629;SDS011;56857;52.212;5.496;2023-04-25T01:29:07;16.00;;;3.95;;
69629;SDS011;56857;52.212;5.496;2023-04-25T01:31:33;15.25;;;3.67;;
69629;SDS011;56857;52.212;5.496;2023-04-25T01:34:00;13.98;;;3.85;;
69629;SDS011;56857;52.212;5.496;2023-04-25T01:36:26;11.93;;;3.65;;
69629;SDS011;56857;52.212;5.496;2023-04-25T01:38:51;12.68;;;3.15;;
69629;SDS011;56857;52.212;5.496;2023-04-25T01:41:17;11.70;;;3.08;;
69629;SDS011;56857;52.212;5.496;2023-04-25T01:43:42;17.42;;;3.38;;
69629;SDS011;56857;52.212;5.496;2023-04-25T01:46:07;14.25;;;3.10;;
69629;SDS011;56857;52.212;5.496;2023-04-25T01:48:33;13.57;;;2.50;;
69629;SDS011;56857;52.212;5.496;2023-04-25T01:50:58;13.30;;;4.20;;
69629;SDS011;56857;52.212;5.496;2023-04-25T01:53:23;13.02;;;2.85;;
69629;SDS011;56857;52.212;5.496;2023-04-25T01:55:49;15.32;;;3.38;;
69629;SDS011;56857;52.212;5.496;2023-04-25T01:58:15;12.68;;;3.95;;
69629;SDS011;56857;52.212;5.496;2023-04-25T02:00:40;11.40;;;3.10;;
69629;SDS011;56857;52.212;5.496;2023-04-25T02:03:05;9.93;;;3.60;;
69629;SDS011;56857;52.212;5.496;2023-04-25T02:05:35;11.35;;;3.22;;
69629;SDS011;56857;52.212;5.496;2023-04-25T02:08:01;11.07;;;3.17;;
69629;SDS011;56857;52.212;5.496;2023-04-25T02:10:27;10.15;;;3.13;;
69629;SDS011;56857;52.212;5.496;2023-04-25T02:12:52;10.57;;;2.47;;
69629;SDS011;56857;52.212;5.496;2023-04-25T02:15:18;12.23;;;4.23;;
69629;SDS011;56857;52.212;5.496;2023-04-25T02:17:43;9.95;;;2.60;;
69629;SDS011;56857;52.212;5.496;2023-04-25T02:20:08;12.37;;;3.50;;
69629;SDS011;56857;52.212;5.496;2023-04-25T02:22:34;13.32;;;3.75;;
69629;SDS011;56857;52.212;5.496;2023-04-25T02:25:00;10.27;;;3.03;;
69629;SDS011;56857;52.212;5.496;2023-04-25T02:27:25;12.15;;;3.08;;
69629;SDS011;56857;52.212;5.496;2023-04-25T02:29:50;16.27;;;3.58;;
69629;SDS011;56857;52.212;5.496;2023-04-25T02:32:15;10.13;;;3.42;;
69629;SDS011;56857;52.212;5.496;2023-04-25T02:34:41;10.03;;;2.80;;
69629;SDS011;56857;52.212;5.496;2023-04-25T02:37:06;14.80;;;3.00;;
69629;SDS011;56857;52.212;5.496;2023-04-25T02:39:31;10.90;;;2.88;;
69629;SDS011;56857;52.212;5.496;2023-04-25T02:41:57;8.55;;;3.03;;
69629;SDS011;56857;52.212;5.496;2023-04-25T02:44:22;12.57;;;3.60;;
69629;SDS011;56857;52.212;5.496;2023-04-25T02:46:47;10.03;;;2.93;;
69629;SDS011;56857;52.212;5.496;2023-04-25T02:49:13;11.43;;;3.13;;
69629;SDS011;56857;52.212;5.496;2023-04-25T02:51:38;13.90;;;4.50;;
69629;SDS011;56857;52.212;5.496;2023-04-25T02:54:03;9.65;;;3.15;;
69629;SDS011;56857;52.212;5.496;2023-04-25T02:56:29;9.82;;;3.28;;
69629;SDS011;56857;52.212;5.496;2023-04-25T02:58:54;7.60;;;2.50;;
69629;SDS011;56857;52.212;5.496;2023-04-25T03:01:19;9.70;;;3.17;;
69629;SDS011;56857;52.212;5.496;2023-04-25T03:03:44;10.77;;;3.20;;
69629;SDS011;56857;52.212;5.496;2023-04-25T03:06:10;9.98;;;3.65;;
69629;SDS011;56857;52.212;5.496;2023-04-25T03:08:35;9.88;;;3.30;;
69629;SDS011;56857;52.212;5.496;2023-04-25T03:11:02;12.55;;;4.03;;
69629;SDS011;56857;52.212;5.496;2023-04-25T03:13:27;10.23;;;4.00;;
69629;SDS011;56857;52.212;5.496;2023-04-25T03:15:52;9.60;;;3.15;;
69629;SDS011;56857;52.212;5.496;2023-04-25T03:18:18;9.05;;;3.65;;
69629;SDS011;56857;52.212;5.496;2023-04-25T03:20:44;8.95;;;2.88;;
69629;SDS011;56857;52.212;5.496;2023-04-25T03:23:10;10.05;;;3.08;;
69629;SDS011;56857;52.212;5.496;2023-04-25T03:25:35;11.90;;;3.20;;
69629;SDS011;56857;52.212;5.496;2023-04-25T03:28:01;12.32;;;4.03;;
69629;SDS011;56857;52.212;5.496;2023-04-25T03:30:26;14.38;;;3.50;;
69629;SDS011;56857;52.212;5.496;2023-04-25T03:32:51;11.85;;;3.40;;
69629;SDS011;56857;52.212;5.496;2023-04-25T03:35:17;11.45;;;3.78;;
69629;SDS011;56857;52.212;5.496;2023-04-25T03:37:42;12.63;;;3.72;;
69629;SDS011;56857;52.212;5.496;2023-04-25T03:40:08;11.52;;;4.38;;
69629;SDS011;56857;52.212;5.496;2023-04-25T03:42:35;8.88;;;3.35;;
69629;SDS011;56857;52.212;5.496;2023-04-25T03:45:00;8.98;;;3.08;;
69629;SDS011;56857;52.212;5.496;2023-04-25T03:47:25;8.32;;;3.13;;
69629;SDS011;56857;52.212;5.496;2023-04-25T03:49:50;11.73;;;3.42;;
69629;SDS011;56857;52.212;5.496;2023-04-25T03:52:16;9.85;;;3.00;;
69629;SDS011;56857;52.212;5.496;2023-04-25T03:54:41;7.78;;;2.55;;
69629;SDS011;56857;52.212;5.496;2023-04-25T03:57:06;8.80;;;3.80;;
69629;SDS011;56857;52.212;5.496;2023-04-25T03:59:32;10.73;;;4.07;;
69629;SDS011;56857;52.212;5.496;2023-04-25T04:01:57;12.60;;;3.40;;
69629;SDS011;56857;52.212;5.496;2023-04-25T04:04:22;13.02;;;3.53;;
69629;SDS011;56857;52.212;5.496;2023-04-25T04:06:48;11.47;;;3.20;;
69629;SDS011;56857;52.212;5.496;2023-04-25T04:09:13;11.65;;;2.70;;
69629;SDS011;56857;52.212;5.496;2023-04-25T04:11:38;14.53;;;3.47;;
69629;SDS011;56857;52.212;5.496;2023-04-25T04:14:07;11.27;;;3.95;;
69629;SDS011;56857;52.212;5.496;2023-04-25T04:16:32;10.95;;;3.10;;
69629;SDS011;56857;52.212;5.496;2023-04-25T04:18:58;8.60;;;2.78;;
69629;SDS011;56857;52.212;5.496;2023-04-25T04:21:23;13.38;;;3.20;;
69629;SDS011;56857;52.212;5.496;2023-04-25T04:23:48;10.30;;;2.97;;
69629;SDS011;56857;52.212;5.496;2023-04-25T04:26:14;10.00;;;2.45;;
69629;SDS011;56857;52.212;5.496;2023-04-25T04:28:40;8.88;;;3.15;;
69629;SDS011;56857;52.212;5.496;2023-04-25T04:31:05;7.25;;;2.70;;
69629;SDS011;56857;52.212;5.496;2023-04-25T04:33:30;6.65;;;2.42;;
69629;SDS011;56857;52.212;5.496;2023-04-25T04:35:56;9.52;;;2.35;;
69629;SDS011;56857;52.212;5.496;2023-04-25T04:38:21;8.70;;;2.08;;
69629;SDS011;56857;52.212;5.496;2023-04-25T04:40:46;7.72;;;2.65;;
69629;SDS011;56857;52.212;5.496;2023-04-25T04:43:12;8.55;;;2.63;;
69629;SDS011;56857;52.212;5.496;2023-04-25T04:45:37;10.00;;;2.58;;
69629;SDS011;56857;52.212;5.496;2023-04-25T04:48:02;7.95;;;2.53;;
69629;SDS011;56857;52.212;5.496;2023-04-25T04:50:28;7.75;;;2.33;;
69629;SDS011;56857;52.212;5.496;2023-04-25T04:52:53;9.43;;;2.90;;
69629;SDS011;56857;52.212;5.496;2023-04-25T04:55:18;11.02;;;2.63;;
69629;SDS011;56857;52.212;5.496;2023-04-25T04:57:44;6.60;;;2.55;;
69629;SDS011;56857;52.212;5.496;2023-04-25T05:00:10;9.75;;;2.75;;
69629;SDS011;56857;52.212;5.496;2023-04-25T05:02:37;12.63;;;3.00;;
69629;SDS011;56857;52.212;5.496;2023-04-25T05:05:03;5.50;;;2.40;;
69629;SDS011;56857;52.212;5.496;2023-04-25T05:07:30;8.13;;;2.45;;
69629;SDS011;56857;52.212;5.496;2023-04-25T05:09:55;9.85;;;2.88;;
69629;SDS011;56857;52.212;5.496;2023-04-25T05:12:20;9.47;;;2.30;;
69629;SDS011;56857;52.212;5.496;2023-04-25T05:14:45;13.55;;;2.90;;
69629;SDS011;56857;52.212;5.496;2023-04-25T05:17:11;8.05;;;2.30;;
69629;SDS011;56857;52.212;5.496;2023-04-25T05:19:37;10.27;;;2.47;;
69629;SDS011;56857;52.212;5.496;2023-04-25T05:22:02;9.20;;;1.93;;
69629;SDS011;56857;52.212;5.496;2023-04-25T05:24:28;6.28;;;1.60;;
69629;SDS011;56857;52.212;5.496;2023-04-25T05:26:53;10.10;;;2.35;;
69629;SDS011;56857;52.212;5.496;2023-04-25T05:29:18;12.50;;;2.83;;
69629;SDS011;56857;52.212;5.496;2023-04-25T05:31:44;6.57;;;2.67;;
69629;SDS011;56857;52.212;5.496;2023-04-25T05:34:09;10.93;;;2.00;;
69629;SDS011;56857;52.212;5.496;2023-04-25T05:36:35;9.77;;;3.23;;
69629;SDS011;56857;52.212;5.496;2023-04-25T05:39:00;8.70;;;2.22;;
69629;SDS011;56857;52.212;5.496;2023-04-25T05:41:25;9.70;;;2.03;;
69629;SDS011;56857;52.212;5.496;2023-04-25T05:43:51;7.88;;;1.92;;
69629;SDS011;56857;52.212;5.496;2023-04-25T05:46:16;6.13;;;2.03;;
69629;SDS011;56857;52.212;5.496;2023-04-25T05:48:41;11.43;;;2.35;;
69629;SDS011;56857;52.212;5.496;2023-04-25T05:51:08;7.97;;;3.30;;
69629;SDS011;56857;52.212;5.496;2023-04-25T05:53:33;12.13;;;2.75;;
69629;SDS011;56857;52.212;5.496;2023-04-25T05:55:58;10.32;;;2.88;;
69629;SDS011;56857;52.212;5.496;2023-04-25T05:58:24;9.63;;;2.78;;
69629;SDS011;56857;52.212;5.496;2023-04-25T06:00:49;7.78;;;2.03;;
69629;SDS011;56857;52.212;5.496;2023-04-25T06:03:14;13.48;;;2.60;;
69629;SDS011;56857;52.212;5.496;2023-04-25T06:05:42;13.47;;;2.80;;
69629;SDS011;56857;52.212;5.496;2023-04-25T06:08:08;8.35;;;3.20;;
69629;SDS011;56857;52.212;5.496;2023-04-25T06:10:34;8.38;;;2.78;;
69629;SDS011;56857;52.212;5.496;2023-04-25T06:13:00;11.68;;;3.30;;
69629;SDS011;56857;52.212;5.496;2023-04-25T06:15:25;9.47;;;2.30;;
69629;SDS011;56857;52.212;5.496;2023-04-25T06:17:50;9.65;;;2.20;;
69629;SDS011;56857;52.212;5.496;2023-04-25T06:20:15;9.00;;;2.43;;
69629;SDS011;56857;52.212;5.496;2023-04-25T06:22:41;10.55;;;1.92;;
69629;SDS011;56857;52.212;5.496;2023-04-25T06:25:06;15.18;;;3.50;;
69629;SDS011;56857;52.212;5.496;2023-04-25T06:27:32;9.07;;;2.33;;
69629;SDS011;56857;52.212;5.496;2023-04-25T06:29:58;9.95;;;2.53;;
69629;SDS011;56857;52.212;5.496;2023-04-25T06:32:24;9.45;;;2.83;;
69629;SDS011;56857;52.212;5.496;2023-04-25T06:34:49;13.02;;;2.72;;
69629;SDS011;56857;52.212;5.496;2023-04-25T06:37:16;8.85;;;2.90;;
69629;SDS011;56857;52.212;5.496;2023-04-25T06:39:41;11.23;;;3.60;;
69629;SDS011;56857;52.212;5.496;2023-04-25T06:42:06;12.23;;;2.70;;
69629;SDS011;56857;52.212;5.496;2023-04-25T06:44:32;11.80;;;2.65;;
69629;SDS011;56857;52.212;5.496;2023-04-25T06:46:57;12.75;;;2.30;;
69629;SDS011;56857;52.212;5.496;2023-04-25T06:49:22;10.23;;;1.83;;
69629;SDS011;56857;52.212;5.496;2023-04-25T06:51:48;14.65;;;2.83;;
69629;SDS011;56857;52.212;5.496;2023-04-25T06:54:13;10.65;;;2.45;;
69629;SDS011;56857;52.212;5.496;2023-04-25T06:56:38;9.00;;;2.30;;
69629;SDS011;56857;52.212;5.496;2023-04-25T06:59:07;16.80;;;2.80;;
69629;SDS011;56857;52.212;5.496;2023-04-25T07:01:32;12.00;;;2.17;;
69629;SDS011;56857;52.212;5.496;2023-04-25T07:03:57;10.90;;;2.37;;
69629;SDS011;56857;52.212;5.496;2023-04-25T07:06:22;11.70;;;2.58;;
69629;SDS011;56857;52.212;5.496;2023-04-25T07:08:48;9.18;;;3.00;;
69629;SDS011;56857;52.212;5.496;2023-04-25T07:11:13;10.82;;;2.83;;
69629;SDS011;56857;52.212;5.496;2023-04-25T07:13:38;7.40;;;2.23;;
69629;SDS011;56857;52.212;5.496;2023-04-25T07:16:04;8.27;;;2.58;;
69629;SDS011;56857;52.212;5.496;2023-04-25T07:18:30;8.25;;;2.55;;
69629;SDS011;56857;52.212;5.496;2023-04-25T07:20:55;9.93;;;3.10;;
69629;SDS011;56857;52.212;5.496;2023-04-25T07:23:20;7.80;;;2.23;;
69629;SDS011;56857;52.212;5.496;2023-04-25T07:25:46;11.50;;;1.88;;
69629;SDS011;56857;52.212;5.496;2023-04-25T07:28:11;10.63;;;2.42;;
69629;SDS011;56857;52.212;5.496;2023-04-25T07:30:37;14.30;;;3.08;;
69629;SDS011;56857;52.212;5.496;2023-04-25T07:33:02;8.55;;;1.92;;
69629;SDS011;56857;52.212;5.496;2023-04-25T07:35:28;7.85;;;2.00;;
69629;SDS011;56857;52.212;5.496;2023-04-25T07:37:56;9.65;;;2.03;;
69629;SDS011;56857;52.212;5.496;2023-04-25T07:40:21;9.25;;;2.60;;
69629;SDS011;56857;52.212;5.496;2023-04-25T07:42:47;7.43;;;2.35;;
69629;SDS011;56857;52.212;5.496;2023-04-25T07:45:16;17.30;;;2.20;;
69629;SDS011;56857;52.212;5.496;2023-04-25T07:47:41;10.32;;;2.10;;
69629;SDS011;56857;52.212;5.496;2023-04-25T07:50:07;10.68;;;2.33;;
69629;SDS011;56857;52.212;5.496;2023-04-25T07:52:33;11.65;;;3.20;;
69629;SDS011;56857;52.212;5.496;2023-04-25T07:54:58;11.30;;;2.40;;
69629;SDS011;56857;52.212;5.496;2023-04-25T07:57:23;14.35;;;3.10;;
69629;SDS011;56857;52.212;5.496;2023-04-25T07:59:49;10.90;;;2.58;;
69629;SDS011;56857;52.212;5.496;2023-04-25T08:02:14;8.45;;;2.03;;
69629;SDS011;56857;52.212;5.496;2023-04-25T08:04:40;10.03;;;2.17;;
69629;SDS011;56857;52.212;5.496;2023-04-25T08:07:05;9.27;;;2.85;;
69629;SDS011;56857;52.212;5.496;2023-04-25T08:09:30;9.77;;;2.07;;
69629;SDS011;56857;52.212;5.496;2023-04-25T08:11:56;8.55;;;2.20;;
69629;SDS011;56857;52.212;5.496;2023-04-25T08:14:24;6.40;;;2.10;;
69629;SDS011;56857;52.212;5.496;2023-04-25T08:16:49;5.30;;;2.20;;
69629;SDS011;56857;52.212;5.496;2023-04-25T08:19:18;8.25;;;2.13;;
69629;SDS011;56857;52.212;5.496;2023-04-25T08:24:12;9.90;;;2.35;;
69629;SDS011;56857;52.212;5.496;2023-04-25T08:26:37;7.65;;;2.40;;
69629;SDS011;56857;52.212;5.496;2023-04-25T08:29:02;5.90;;;1.88;;
69629;SDS011;56857;52.212;5.496;2023-04-25T08:31:28;6.22;;;1.40;;
69629;SDS011;56857;52.212;5.496;2023-04-25T08:33:53;10.35;;;2.13;;
69629;SDS011;56857;52.212;5.496;2023-04-25T08:36:18;7.10;;;1.90;;
69629;SDS011;56857;52.212;5.496;2023-04-25T08:38:44;8.00;;;2.27;;
69629;SDS011;56857;52.212;5.496;2023-04-25T08:41:09;11.05;;;1.60;;
69629;SDS011;56857;52.212;5.496;2023-04-25T08:43:36;6.25;;;1.95;;
69629;SDS011;56857;52.212;5.496;2023-04-25T08:46:05;10.25;;;2.05;;
69629;SDS011;56857;52.212;5.496;2023-04-25T08:48:35;6.90;;;2.17;;
69629;SDS011;56857;52.212;5.496;2023-04-25T08:51:01;10.50;;;1.98;;
69629;SDS011;56857;52.212;5.496;2023-04-25T08:53:31;10.30;;;2.38;;
69629;SDS011;56857;52.212;5.496;2023-04-25T08:55:59;7.90;;;2.00;;
69629;SDS011;56857;52.212;5.496;2023-04-25T08:58:27;6.85;;;1.80;;
69629;SDS011;56857;52.212;5.496;2023-04-25T09:00:56;6.32;;;1.92;;
69629;SDS011;56857;52.212;5.496;2023-04-25T09:03:30;8.82;;;2.05;;
69629;SDS011;56857;52.212;5.496;2023-04-25T09:06:06;9.40;;;2.17;;
69629;SDS011;56857;52.212;5.496;2023-04-25T09:08:33;8.35;;;1.73;;
69629;SDS011;56857;52.212;5.496;2023-04-25T09:10:58;8.88;;;1.90;;
69629;SDS011;56857;52.212;5.496;2023-04-25T09:13:24;7.93;;;2.47;;
69629;SDS011;56857;52.212;5.496;2023-04-25T09:15:51;7.18;;;2.30;;
69629;SDS011;56857;52.212;5.496;2023-04-25T09:18:39;10.40;;;1.52;;
69629;SDS011;56857;52.212;5.496;2023-04-25T09:21:10;5.80;;;1.52;;
69629;SDS011;56857;52.212;5.496;2023-04-25T09:23:46;6.50;;;2.13;;
69629;SDS011;56857;52.212;5.496;2023-04-25T09:26:14;7.28;;;1.83;;
69629;SDS011;56857;52.212;5.496;2023-04-25T09:28:41;9.63;;;2.15;;
69629;SDS011;56857;52.212;5.496;2023-04-25T09:31:06;6.72;;;1.70;;
69629;SDS011;56857;52.212;5.496;2023-04-25T09:33:35;10.07;;;2.75;;
69629;SDS011;56857;52.212;5.496;2023-04-25T09:36:04;6.30;;;1.60;;
69629;SDS011;56857;52.212;5.496;2023-04-25T09:38:43;7.75;;;1.98;;
69629;SDS011;56857;52.212;5.496;2023-04-25T09:41:10;4.25;;;1.50;;
69629;SDS011;56857;52.212;5.496;2023-04-25T09:43:36;8.55;;;1.67;;
69629;SDS011;56857;52.212;5.496;2023-04-25T09:46:02;9.68;;;1.80;;
69629;SDS011;56857;52.212;5.496;2023-04-25T09:48:32;8.48;;;2.05;;
69629;SDS011;56857;52.212;5.496;2023-04-25T09:51:13;5.57;;;1.80;;
69629;SDS011;56857;52.212;5.496;2023-04-25T09:53:40;9.32;;;1.63;;
69629;SDS011;56857;52.212;5.496;2023-04-25T09:56:07;10.85;;;3.00;;
69629;SDS011;56857;52.212;5.496;2023-04-25T09:58:35;7.35;;;1.73;;
69629;SDS011;56857;52.212;5.496;2023-04-25T10:01:03;7.97;;;1.88;;
69629;SDS011;56857;52.212;5.496;2023-04-25T10:03:31;5.35;;;1.75;;
69629;SDS011;56857;52.212;5.496;2023-04-25T10:06:01;5.28;;;2.05;;
69629;SDS011;56857;52.212;5.496;2023-04-25T10:08:30;7.82;;;1.20;;
69629;SDS011;56857;52.212;5.496;2023-04-25T10:10:59;9.10;;;1.75;;
69629;SDS011;56857;52.212;5.496;2023-04-25T10:13:25;5.88;;;1.67;;
69629;SDS011;56857;52.212;5.496;2023-04-25T10:15:52;5.35;;;2.00;;
69629;SDS011;56857;52.212;5.496;2023-04-25T10:18:18;4.13;;;1.60;;
69629;SDS011;56857;52.212;5.496;2023-04-25T10:20:46;7.43;;;2.17;;
69629;SDS011;56857;52.212;5.496;2023-04-25T10:23:12;5.55;;;1.88;;
69629;SDS011;56857;52.212;5.496;2023-04-25T10:25:39;7.10;;;2.40;;
69629;SDS011;56857;52.212;5.496;2023-04-25T10:28:05;8.23;;;1.63;;
69629;SDS011;56857;52.212;5.496;2023-04-25T10:30:31;7.43;;;2.17;;
69629;SDS011;56857;52.212;5.496;2023-04-25T10:32:56;6.57;;;1.70;;
69629;SDS011;56857;52.212;5.496;2023-04-25T10:35:27;7.07;;;1.92;;
69629;SDS011;56857;52.212;5.496;2023-04-25T10:38:09;5.28;;;1.80;;
69629;SDS011;56857;52.212;5.496;2023-04-25T10:40:36;7.60;;;1.60;;
69629;SDS011;56857;52.212;5.496;2023-04-25T10:48:47;6.38;;;1.75;;
69629;SDS011;56857;52.212;5.496;2023-04-25T10:51:34;7.43;;;2.10;;
69629;SDS011;56857;52.212;5.496;2023-04-25T10:54:02;9.07;;;2.13;;
69629;SDS011;56857;52.212;5.496;2023-04-25T10:56:31;5.20;;;2.00;;
69629;SDS011;56857;52.212;5.496;2023-04-25T10:59:08;6.43;;;1.90;;
69629;SDS011;56857;52.212;5.496;2023-04-25T11:07:02;5.65;;;1.60;;
69629;SDS011;56857;52.212;5.496;2023-04-25T11:09:28;5.72;;;1.67;;
69629;SDS011;56857;52.212;5.496;2023-04-25T11:11:57;9.10;;;1.83;;
69629;SDS011;56857;52.212;5.496;2023-04-25T11:14:23;6.53;;;1.50;;
69629;SDS011;56857;52.212;5.496;2023-04-25T11:16:55;5.60;;;1.90;;
69629;SDS011;56857;52.212;5.496;2023-04-25T11:19:21;6.95;;;1.90;;
69629;SDS011;56857;52.212;5.496;2023-04-25T11:21:47;8.30;;;2.13;;
69629;SDS011;56857;52.212;5.496;2023-04-25T11:24:13;5.72;;;1.83;;
69629;SDS011;56857;52.212;5.496;2023-04-25T11:26:38;12.38;;;1.92;;
69629;SDS011;56857;52.212;5.496;2023-04-25T11:29:06;10.13;;;2.25;;
69629;SDS011;56857;52.212;5.496;2023-04-25T11:31:31;7.70;;;2.13;;
69629;SDS011;56857;52.212;5.496;2023-04-25T11:33:56;9.32;;;2.17;;
69629;SDS011;56857;52.212;5.496;2023-04-25T11:36:23;6.85;;;1.92;;
69629;SDS011;56857;52.212;5.496;2023-04-25T11:38:50;14.27;;;2.80;;
69629;SDS011;56857;52.212;5.496;2023-04-25T11:41:16;7.90;;;1.35;;
69629;SDS011;56857;52.212;5.496;2023-04-25T11:43:42;5.38;;;1.90;;
69629;SDS011;56857;52.212;5.496;2023-04-25T11:46:09;5.68;;;1.80;;
69629;SDS011;56857;52.212;5.496;2023-04-25T11:48:39;8.77;;;2.85;;
69629;SDS011;56857;52.212;5.496;2023-04-25T11:51:05;7.63;;;1.70;;
69629;SDS011;56857;52.212;5.496;2023-04-25T11:53:31;7.35;;;2.15;;
69629;SDS011;56857;52.212;5.496;2023-04-25T11:55:56;7.90;;;2.05;;
69629;SDS011;56857;52.212;5.496;2023-04-25T11:58:22;5.30;;;2.25;;
69629;SDS011;56857;52.212;5.496;2023-04-25T12:00:47;10.05;;;1.80;;
69629;SDS011;56857;52.212;5.496;2023-04-25T12:03:13;5.18;;;1.83;;
69629;SDS011;56857;52.212;5.496;2023-04-25T12:05:38;8.53;;;1.87;;
69629;SDS011;56857;52.212;5.496;2023-04-25T12:08:10;6.90;;;2.10;;
69629;SDS011;56857;52.212;5.496;2023-04-25T12:10:39;7.03;;;2.13;;
69629;SDS011;56857;52.212;5.496;2023-04-25T12:13:25;5.70;;;1.73;;
69629;SDS011;56857;52.212;5.496;2023-04-25T12:15:53;6.57;;;1.63;;
69629;SDS011;56857;52.212;5.496;2023-04-25T12:18:20;7.65;;;2.40;;
69629;SDS011;56857;52.212;5.496;2023-04-25T12:20:46;5.32;;;1.50;;
69629;SDS011;56857;52.212;5.496;2023-04-25T12:23:11;6.50;;;1.42;;
69629;SDS011;56857;52.212;5.496;2023-04-25T12:25:43;4.82;;;1.60;;
69629;SDS011;56857;52.212;5.496;2023-04-25T12:28:19;7.50;;;1.83;;
69629;SDS011;56857;52.212;5.496;2023-04-25T12:33:20;7.28;;;1.67;;
69629;SDS011;56857;52.212;5.496;2023-04-25T12:35:46;4.18;;;1.50;;
69629;SDS011;56857;52.212;5.496;2023-04-25T12:38:11;4.73;;;1.50;;
69629;SDS011;56857;52.212;5.496;2023-04-25T12:40:48;5.47;;;1.65;;
69629;SDS011;56857;52.212;5.496;2023-04-25T12:43:13;6.40;;;1.70;;
69629;SDS011;56857;52.212;5.496;2023-04-25T12:45:39;7.30;;;1.95;;
69629;SDS011;56857;52.212;5.496;2023-04-25T12:48:04;4.18;;;1.23;;
69629;SDS011;56857;52.212;5.496;2023-04-25T12:50:29;5.30;;;1.50;;
69629;SDS011;56857;52.212;5.496;2023-04-25T12:52:55;5.50;;;1.33;;
69629;SDS011;56857;52.212;5.496;2023-04-25T12:55:20;4.38;;;1.48;;
69629;SDS011;56857;52.212;5.496;2023-04-25T12:57:45;4.70;;;1.80;;
69629;SDS011;56857;52.212;5.496;2023-04-25T13:00:11;7.07;;;1.70;;
69629;SDS011;56857;52.212;5.496;2023-04-25T13:02:36;4.00;;;1.60;;
69629;SDS011;56857;52.212;5.496;2023-04-25T13:05:04;4.68;;;1.50;;
69629;SDS011;56857;52.212;5.496;2023-04-25T13:07:30;4.47;;;2.05;;
69629;SDS011;56857;52.212;5.496;2023-04-25T13:09:55;7.22;;;1.90;;
69629;SDS011;56857;52.212;5.496;2023-04-25T13:12:22;7.47;;;1.80;;
69629;SDS011;56857;52.212;5.496;2023-04-25T13:14:47;6.18;;;1.85;;
69629;SDS011;56857;52.212;5.496;2023-04-25T13:17:13;7.50;;;1.87;;
69629;SDS011;56857;52.212;5.496;2023-04-25T13:19:38;5.68;;;2.22;;
69629;SDS011;56857;52.212;5.496;2023-04-25T13:22:03;9.93;;;2.10;;
69629;SDS011;56857;52.212;5.496;2023-04-25T13:24:28;8.57;;;2.03;;
69629;SDS011;56857;52.212;5.496;2023-04-25T13:26:54;8.70;;;3.00;;
69629;SDS011;56857;52.212;5.496;2023-04-25T13:29:19;7.20;;;2.22;;
69629;SDS011;56857;52.212;5.496;2023-04-25T13:31:44;5.97;;;2.00;;
69629;SDS011;56857;52.212;5.496;2023-04-25T13:34:09;8.53;;;1.80;;
69629;SDS011;56857;52.212;5.496;2023-04-25T13:36:35;6.47;;;1.70;;
69629;SDS011;56857;52.212;5.496;2023-04-25T13:39:00;6.88;;;2.15;;
69629;SDS011;56857;52.212;5.496;2023-04-25T13:41:26;5.88;;;1.92;;
69629;SDS011;56857;52.212;5.496;2023-04-25T13:43:51;6.88;;;1.83;;
69629;SDS011;56857;52.212;5.496;2023-04-25T13:46:16;11.02;;;2.13;;
69629;SDS011;56857;52.212;5.496;2023-04-25T13:48:42;6.68;;;1.92;;
69629;SDS011;56857;52.212;5.496;2023-04-25T13:51:07;7.90;;;2.42;;
69629;SDS011;56857;52.212;5.496;2023-04-25T13:53:32;7.03;;;2.33;;
69629;SDS011;56857;52.212;5.496;2023-04-25T13:55:57;7.78;;;2.55;;
69629;SDS011;56857;52.212;5.496;2023-04-25T13:58:24;9.60;;;2.10;;
69629;SDS011;56857;52.212;5.496;2023-04-25T14:00:49;5.90;;;2.25;;
69629;SDS011;56857;52.212;5.496;2023-04-25T14:03:14;6.22;;;1.98;;
69629;SDS011;56857;52.212;5.496;2023-04-25T14:05:40;8.38;;;2.15;;
69629;SDS011;56857;52.212;5.496;2023-04-25T14:08:07;5.90;;;1.70;;
69629;SDS011;56857;52.212;5.496;2023-04-25T14:10:33;7.00;;;1.90;;
69629;SDS011;56857;52.212;5.496;2023-04-25T14:12:59;7.35;;;2.95;;
69629;SDS011;56857;52.212;5.496;2023-04-25T14:15:24;11.93;;;3.85;;
69629;SDS011;56857;52.212;5.496;2023-04-25T14:17:50;5.03;;;1.88;;
69629;SDS011;56857;52.212;5.496;2023-04-25T14:20:15;7.28;;;2.33;;
69629;SDS011;56857;52.212;5.496;2023-04-25T14:22:40;6.32;;;2.03;;
69629;SDS011;56857;52.212;5.496;2023-04-25T14:25:05;6.68;;;1.90;;
69629;SDS011;56857;52.212;5.496;2023-04-25T14:27:31;6.45;;;2.72;;
69629;SDS011;56857;52.212;5.496;2023-04-25T14:29:56;7.50;;;2.17;;
69629;SDS011;56857;52.212;5.496;2023-04-25T14:32:22;8.95;;;2.28;;
69629;SDS011;56857;52.212;5.496;2023-04-25T14:34:47;8.00;;;3.07;;
69629;SDS011;56857;52.212;5.496;2023-04-25T14:37:12;6.07;;;1.93;;
69629;SDS011;56857;52.212;5.496;2023-04-25T14:39:38;8.23;;;2.13;;
69629;SDS011;56857;52.212;5.496;2023-04-25T14:42:03;7.00;;;2.33;;
69629;SDS011;56857;52.212;5.496;2023-04-25T14:44:28;9.40;;;2.47;;
69629;SDS011;56857;52.212;5.496;2023-04-25T14:46:54;7.10;;;2.00;;
69629;SDS011;56857;52.212;5.496;2023-04-25T14:49:19;8.27;;;1.77;;
69629;SDS011;56857;52.212;5.496;2023-04-25T14:51:44;9.93;;;2.42;;
69629;SDS011;56857;52.212;5.496;2023-04-25T14:54:10;10.05;;;2.65;;